Unity House, Pennsylvania
Current Conditions -  °F | °C
As of 4:53 AM on Thursday 29 Jan 2015 (Local Time) from KMPO Reporting Station
Clear Clear  
Wind Chill:   Ceiling: Unl
Heat Index:   Visibility: 10mi
Dew Point: -4°   Wind: 3mph
Humidity: 79%   Direction: 260°W
Pressure: 30.18"   Gusts: NA
Location:  41.15°N, 75.03°W
Report Text: KMPO 290953Z AUTO 26003KT 10SM CLR M17/M20 A3018 RMK AO2 SLP260 T11721200
Loading
Personal Weather Stations






























Interactive Weather Map New forecast layout! Learn more

10-Day Weather Forecast

Advertisements
Track Severe Weather on mobile